^^
B2 Weather Station Historical Data
Daily Summary for January 23, 2019 Units:  English    Metric   Both
Daily Weekly Monthly Yearly Custom
  High: Low: Average:
Temperature: 37.8 °F 20.1 °F 29 °F
Dew Point: 36.5 °F 15.5 °F 26.8 °F
Humidity: 95% 82% 91%
Wind Speed: 18.4mph 0.0mph 8.7mph
Wind Gust: 11.9mph - -
Wind- - WSW
Pressure: 29.91 in 29.64 in -
Precipitation: 0.37 in    
Historical Graphs
 
 
Tabular Data for January 23, 2019
Time Temperature Dew Point Pressure Wind Wind Speed Wind Gust Humidity Rainfall Rate (Hourly) solar
00:04 33.9 °F 32.6 °F 29.91 in SSE 5.0 mph 3.0 mph 95% 0.03 in 0.00 W/m2
00:09 33.9 °F 32.6 °F 29.91 in SSE 3.5 mph 2.7 mph 95% 0.02 in 0.00 W/m2
00:14 34.1 °F 32.6 °F 29.91 in SSE 3.5 mph 2.5 mph 94% 0.04 in 0.00 W/m2
00:19 34.2 °F 32.9 °F 29.90 in SSE 3.5 mph 3.0 mph 95% 0.05 in 0.00 W/m2
00:24 34.3 °F 33.0 °F 29.91 in South 4.0 mph 3.3 mph 95% 0.05 in 0.00 W/m2
00:29 34.3 °F 33.0 °F 29.90 in South 3.5 mph 2.2 mph 95% 0.05 in 0.00 W/m2
00:34 34.3 °F 33.0 °F 29.89 in SSE 4.0 mph 2.8 mph 95% 0.05 in 0.00 W/m2
00:39 34.3 °F 33.0 °F 29.89 in SSE 4.6 mph 3.1 mph 95% 0.06 in 0.00 W/m2
00:44 34.4 °F 33.1 °F 29.89 in SSE 5.0 mph 3.8 mph 95% 0.07 in 0.00 W/m2
00:49 34.5 °F 33.0 °F 29.89 in South 4.6 mph 3.0 mph 94% 0.08 in 0.00 W/m2
00:54 34.5 °F 33.2 °F 29.89 in SSE 5.8 mph 4.0 mph 95% 0.09 in 0.00 W/m2
00:59 34.4 °F 33.1 °F 29.89 in South 4.6 mph 3.6 mph 95% 0.10 in 0.00 W/m2
01:04 34.4 °F 33.1 °F 29.88 in SSE 4.6 mph 3.1 mph 95% 0.10 in 0.00 W/m2
01:09 34.4 °F 33.1 °F 29.88 in SSE 6.0 mph 3.2 mph 95% 0.10 in 0.00 W/m2
01:14 34.4 °F 33.1 °F 29.87 in SSE 3.5 mph 2.1 mph 95% 0.08 in 0.00 W/m2
01:19 34.4 °F 33.1 °F 29.87 in SSE 3.5 mph 3.1 mph 95% 0.07 in 0.00 W/m2
01:24 34.3 °F 33.0 °F 29.87 in SSE 4.6 mph 3.7 mph 95% 0.07 in 0.00 W/m2
01:29 34.1 °F 32.8 °F 29.87 in SSE 4.0 mph 3.4 mph 95% 0.07 in 0.00 W/m2
01:34 34.1 °F 32.8 °F 29.87 in SE 3.5 mph 3.3 mph 95% 0.06 in 0.00 W/m2
01:39 34.3 °F 33.0 °F 29.87 in SSE 4.6 mph 3.3 mph 95% 0.05 in 0.00 W/m2
01:43 34.3 °F 33.0 °F 29.87 in SSE 4.0 mph 3.3 mph 95% 0.04 in 0.00 W/m2
01:49 34.4 °F 33.1 °F 29.87 in SE 4.6 mph 3.5 mph 95% 0.04 in 0.00 W/m2
01:54 34.4 °F 33.1 °F 29.86 in SE 4.0 mph 2.5 mph 95% 0.04 in 0.00 W/m2
01:59 34.3 °F 33.0 °F 29.85 in SE 5.8 mph 2.3 mph 95% 0.03 in 0.00 W/m2
02:04 34.2 °F 32.9 °F 29.84 in SE 4.0 mph 2.8 mph 95% 0.03 in 0.00 W/m2
02:09 34.2 °F 32.9 °F 29.85 in SE 4.6 mph 3.9 mph 95% 0.02 in 0.00 W/m2
02:14 34.2 °F 32.9 °F 29.84 in ESE 5.8 mph 4.5 mph 95% 0.02 in 0.00 W/m2
02:19 34.3 °F 33.0 °F 29.84 in SE 5.8 mph 4.0 mph 95% 0.03 in 0.00 W/m2
02:24 34.3 °F 33.0 °F 29.83 in SE 7.0 mph 6.4 mph 95% 0.03 in 0.00 W/m2
02:29 34.3 °F 33.0 °F 29.83 in SE 7.0 mph 5.5 mph 95% 0.03 in 0.00 W/m2
02:34 34.3 °F 33.0 °F 29.83 in SSE 8.0 mph 6.3 mph 95% 0.03 in 0.00 W/m2
02:39 34.2 °F 32.9 °F 29.82 in SE 8.1 mph 6.2 mph 95% 0.04 in 0.00 W/m2
02:44 34.2 °F 32.9 °F 29.81 in SE 8.1 mph 5.7 mph 95% 0.04 in 0.00 W/m2
02:49 34.3 °F 33.0 °F 29.82 in SSE 6.9 mph 5.9 mph 95% 0.04 in 0.00 W/m2
02:54 34.4 °F 33.1 °F 29.81 in SSE 6.9 mph 5.6 mph 95% 0.03 in 0.00 W/m2
02:59 34.5 °F 33.2 °F 29.81 in SE 6.9 mph 5.6 mph 95% 0.03 in 0.00 W/m2
03:04 34.4 °F 33.1 °F 29.80 in SE 6.9 mph 4.6 mph 95% 0.02 in 0.00 W/m2
03:09 34.3 °F 33.0 °F 29.80 in SSE 6.0 mph 4.1 mph 95% 0.02 in 0.00 W/m2
03:14 34.3 °F 33.0 °F 29.80 in SE 5.8 mph 3.1 mph 95% 0.02 in 0.00 W/m2
03:19 34.3 °F 33.0 °F 29.80 in SSE 6.9 mph 4.0 mph 95% 0.01 in 0.00 W/m2
03:24 34.4 °F 33.1 °F 29.79 in SE 6.9 mph 5.3 mph 95% 0.02 in 0.00 W/m2
03:29 34.5 °F 33.2 °F 29.79 in SSE 5.8 mph 4.2 mph 95% 0.02 in 0.00 W/m2
03:34 34.4 °F 33.1 °F 29.78 in SE 6.9 mph 5.1 mph 95% 0.03 in 0.00 W/m2
03:39 34.5 °F 33.2 °F 29.78 in SSE 5.8 mph 4.3 mph 95% 0.02 in 0.00 W/m2
03:44 34.6 °F 33.3 °F 29.78 in SSE 6.9 mph 4.7 mph 95% 0.02 in 0.00 W/m2
03:49 34.7 °F 33.2 °F 29.77 in SE 6.0 mph 5.0 mph 94% 0.03 in 0.00 W/m2
03:54 34.7 °F 33.2 °F 29.77 in SSE 5.0 mph 3.8 mph 94% 0.03 in 0.00 W/m2
03:59 34.8 °F 33.5 °F 29.77 in SSE 4.0 mph 2.9 mph 95% 0.04 in 0.00 W/m2
04:04 35.0 °F 33.7 °F 29.77 in SSE 3.5 mph 2.1 mph 95% 0.04 in 0.00 W/m2
04:09 35.1 °F 33.5 °F 29.76 in SSE 3.5 mph 2.6 mph 94% 0.04 in 0.00 W/m2
04:14 35.1 °F 33.5 °F 29.76 in SSE 3.5 mph 2.4 mph 94% 0.05 in 0.00 W/m2
04:19 35.1 °F 33.8 °F 29.76 in SSE 4.0 mph 2.3 mph 95% 0.05 in 0.00 W/m2
04:24 35.1 °F 33.8 °F 29.76 in SE 3.5 mph 2.9 mph 95% 0.05 in 0.00 W/m2
04:29 35.1 °F 33.8 °F 29.75 in SE 2.3 mph 0.1 mph 95% 0.05 in 0.00 W/m2
04:34 35.1 °F 33.8 °F 29.75 in SSE 3.5 mph 0.9 mph 95% 0.05 in 0.00 W/m2
04:39 35.2 °F 33.9 °F 29.75 in SSE 1.2 mph   95% 0.06 in 0.00 W/m2
04:44 35.1 °F 33.8 °F 29.75 in SSE 2.3 mph 1.3 mph 95% 0.06 in 0.00 W/m2
04:49 35.3 °F 34.0 °F 29.75 in SSE 2.3 mph 1.7 mph 95% 0.06 in 0.00 W/m2
04:54 35.4 °F 34.1 °F 29.74 in SSE 3.5 mph 2.3 mph 95% 0.07 in 0.00 W/m2
04:59 35.4 °F 34.1 °F 29.73 in SSE 3.5 mph 1.9 mph 95% 0.06 in 0.00 W/m2
05:04 35.3 °F 34.0 °F 29.73 in SSE 3.5 mph 1.8 mph 95% 0.06 in 0.00 W/m2
05:09 35.1 °F 33.8 °F 29.73 in SSE 3.5 mph 1.2 mph 95% 0.06 in 0.00 W/m2
05:14 35.1 °F 33.8 °F 29.72 in Calm     95% 0.06 in 0.00 W/m2
05:19 35.2 °F 33.9 °F 29.71 in Calm     95% 0.06 in 0.00 W/m2
05:24 35.3 °F 34.0 °F 29.71 in SSE 2.3 mph 1.8 mph 95% 0.05 in 0.00 W/m2
05:29 35.6 °F 34.3 °F 29.71 in SSE 2.3 mph 1.3 mph 95% 0.06 in 0.00 W/m2
05:34 35.6 °F 34.3 °F 29.71 in SSE 3.5 mph 2.2 mph 95% 0.05 in 0.00 W/m2
05:39 35.7 °F 34.4 °F 29.71 in South 3.5 mph 2.5 mph 95% 0.05 in 0.00 W/m2
05:44 35.6 °F 34.3 °F 29.70 in SSE 3.5 mph 2.6 mph 95% 0.06 in 0.00 W/m2
05:49 35.4 °F 34.1 °F 29.70 in SE 4.0 mph 3.2 mph 95% 0.05 in 0.00 W/m2
05:54 35.3 °F 34.0 °F 29.68 in SE 7.0 mph 4.8 mph 95% 0.05 in 0.00 W/m2
05:59 35.5 °F 34.2 °F 29.67 in SE 9.2 mph 7.2 mph 95% 0.05 in 0.00 W/m2
06:04 35.9 °F 34.6 °F 29.64 in SE 11.5 mph 8.7 mph 95% 0.06 in 0.00 W/m2
06:09 36.2 °F 34.9 °F 29.64 in SE 11.5 mph 7.4 mph 95% 0.06 in 0.00 W/m2
06:14 36.2 °F 34.9 °F 29.65 in SSE 9.2 mph 6.7 mph 95% 0.05 in 0.00 W/m2
06:19 36.2 °F 34.9 °F 29.68 in South 4.6 mph 3.7 mph 95% 0.05 in 0.00 W/m2
06:24 36.2 °F 34.9 °F 29.68 in SSW 5.8 mph 2.9 mph 95% 0.05 in 0.00 W/m2
06:29 36.3 °F 35.0 °F 29.69 in SSW 3.5 mph 1.2 mph 95% 0.04 in 0.00 W/m2
06:34 36.4 °F 35.1 °F 29.69 in South 3.5 mph 1.4 mph 95% 0.04 in 0.00 W/m2
06:39 36.4 °F 35.1 °F 29.68 in South 4.6 mph 3.6 mph 95% 0.03 in 0.00 W/m2
06:44 36.5 °F 35.2 °F 29.66 in SE 5.8 mph 4.3 mph 95% 0.02 in 0.00 W/m2
06:49 36.6 °F 35.3 °F 29.66 in SSW 7.0 mph 4.7 mph 95% 0.02 in 0.00 W/m2
06:54 36.6 °F 35.3 °F 29.66 in SSE 8.1 mph 5.3 mph 95% 0.01 in 0.00 W/m2
06:59 36.4 °F 35.1 °F 29.66 in South 4.6 mph 3.4 mph 95% 0.01 in 0.00 W/m2
07:04 36.3 °F 35.0 °F 29.67 in South 5.8 mph 4.4 mph 95% 0.00 in 0.00 W/m2
07:09 36.4 °F 35.1 °F 29.67 in SSW 3.5 mph 1.9 mph 95% 0.00 in 0.00 W/m2
07:14 36.6 °F 35.3 °F 29.67 in South 3.5 mph 2.8 mph 95% 0.00 in 0.00 W/m2
07:19 36.8 °F 35.5 °F 29.67 in South 3.5 mph 1.5 mph 95% 0.01 in 0.00 W/m2
07:24 37.0 °F 35.7 °F 29.67 in SSW 4.6 mph 2.2 mph 95% 0.01 in 0.00 W/m2
07:29 37.2 °F 35.9 °F 29.67 in SSW 3.5 mph 1.4 mph 95% 0.02 in 0.00 W/m2
07:34 37.2 °F 35.9 °F 29.67 in South 4.6 mph 1.9 mph 95% 0.02 in 0.00 W/m2
07:39 37.2 °F 35.9 °F 29.67 in South 4.6 mph 3.0 mph 95% 0.03 in 5.00 W/m2
07:44 37.3 °F 36.0 °F 29.67 in SSW 4.6 mph 2.0 mph 95% 0.03 in 5.00 W/m2
07:49 37.4 °F 36.1 °F 29.67 in SSW 6.9 mph 3.3 mph 95% 0.04 in 7.00 W/m2
07:54 37.5 °F 36.2 °F 29.67 in South 4.6 mph 2.5 mph 95% 0.04 in 7.00 W/m2
07:59 37.5 °F 36.2 °F 29.66 in SSW 6.9 mph 3.6 mph 95% 0.04 in 9.00 W/m2
08:04 37.5 °F 36.2 °F 29.66 in SSE 3.5 mph 2.3 mph 95% 0.04 in 12.00 W/m2
08:09 37.6 °F 36.3 °F 29.65 in SSW 9.2 mph 2.8 mph 95% 0.04 in 14.00 W/m2
08:14 37.8 °F 36.5 °F 29.65 in SSW 6.9 mph 3.9 mph 95% 0.05 in 18.00 W/m2
08:19 37.7 °F 36.4 °F 29.65 in SSW 8.1 mph 3.5 mph 95% 0.04 in 18.00 W/m2
08:24 37.6 °F 36.3 °F 29.66 in South 6.9 mph 6.0 mph 95% 0.04 in 18.00 W/m2
08:29 37.7 °F 36.4 °F 29.65 in South 6.9 mph 6.3 mph 95% 0.03 in 23.00 W/m2
08:34 37.8 °F 36.5 °F 29.66 in South 9.0 mph 4.4 mph 95% 0.03 in 23.00 W/m2
08:39 37.8 °F 36.5 °F 29.65 in SSW 11.5 mph 5.7 mph 95% 0.02 in 26.00 W/m2
08:44 37.8 °F 36.5 °F 29.65 in SSW 9.2 mph 5.7 mph 95% 0.02 in 32.00 W/m2
08:49 37.6 °F 36.3 °F 29.64 in SSW 11.5 mph 4.4 mph 95% 0.01 in 39.00 W/m2
08:54 37.6 °F 36.3 °F 29.65 in SW 8.1 mph 4.2 mph 95% 0.02 in 37.00 W/m2
08:59 37.6 °F 36.3 °F 29.65 in South 6.9 mph 5.3 mph 95% 0.02 in 42.00 W/m2
09:04 37.6 °F 36.3 °F 29.66 in SW 8.1 mph 4.2 mph 95% 0.02 in 37.00 W/m2
09:09 37.5 °F 36.2 °F 29.65 in SW 10.4 mph 5.0 mph 95% 0.02 in 37.00 W/m2
09:14 37.3 °F 36.0 °F 29.65 in North 8.1 mph 5.6 mph 95% 0.01 in 35.00 W/m2
09:19 37.1 °F 35.8 °F 29.66 in SW 9.0 mph 6.2 mph 95% 0.01 in 30.00 W/m2
09:24 37.0 °F 35.7 °F 29.66 in North 10.0 mph 7.3 mph 95% 0.01 in 40.00 W/m2
09:29 36.9 °F 35.6 °F 29.66 in WSW 11.5 mph 6.4 mph 95% 0.01 in 69.00 W/m2
09:34 36.7 °F 35.4 °F 29.67 in WSW 9.2 mph 6.9 mph 95% 0.01 in 84.00 W/m2
09:39 36.6 °F 35.3 °F 29.66 in WSW 8.1 mph 6.7 mph 95% 0.01 in 93.00 W/m2
09:44 36.5 °F 35.2 °F 29.66 in SW 5.8 mph 4.0 mph 95% 0.01 in 113.00 W/m2
09:49 36.4 °F 35.1 °F 29.66 in SW 5.8 mph 3.6 mph 95% 0.01 in 135.00 W/m2
09:54 36.4 °F 35.1 °F 29.67 in North 10.4 mph 4.8 mph 95% 0.00 in 134.00 W/m2
09:59 36.4 °F 35.1 °F 29.67 in WSW 11.0 mph 4.8 mph 95% 0.00 in 144.00 W/m2
10:04 36.4 °F 35.1 °F 29.68 in WSW 9.2 mph 4.0 mph 95% 0.00 in 153.00 W/m2
10:09 36.4 °F 35.1 °F 29.68 in West 10.4 mph 4.5 mph 95% 0.00 in 148.00 W/m2
10:14 36.5 °F 35.2 °F 29.68 in WSW 9.0 mph 5.0 mph 95% 0.00 in 174.00 W/m2
10:19 36.4 °F 35.1 °F 29.68 in West 9.2 mph 5.9 mph 95% 0.00 in 250.00 W/m2
10:24 36.2 °F 34.9 °F 29.68 in WNW 9.2 mph 4.3 mph 95% 0.00 in 137.00 W/m2
10:29 36.0 °F 34.7 °F 29.68 in North 9.2 mph 5.1 mph 95% 0.00 in 76.00 W/m2
10:34 35.5 °F 34.2 °F 29.68 in WNW 11.5 mph 6.2 mph 95% 0.00 in 111.00 W/m2
10:39 34.6 °F 33.3 °F 29.68 in WNW 10.4 mph 5.0 mph 95% 0.00 in 102.00 W/m2
10:44 34.1 °F 32.8 °F 29.69 in North 12.7 mph 8.6 mph 95% 0.00 in 102.00 W/m2
10:49 33.6 °F 32.3 °F 29.70 in West 12.7 mph 7.6 mph 95% 0.00 in 98.00 W/m2
10:54 33.0 °F 31.7 °F 29.70 in WNW 14.0 mph 9.2 mph 95% 0.00 in 100.00 W/m2
10:59 32.4 °F 31.1 °F 29.71 in West 15.0 mph 8.8 mph 95% 0.00 in 97.00 W/m2
11:04 31.9 °F 30.6 °F 29.71 in WNW 13.8 mph 6.4 mph 95% 0.00 in 95.00 W/m2
11:09 31.7 °F 30.4 °F 29.72 in WNW 15.0 mph 9.1 mph 95% 0.00 in 86.00 W/m2
11:14 31.3 °F 30.0 °F 29.72 in WNW 10.4 mph 5.8 mph 95% 0.00 in 95.00 W/m2
11:19 31.1 °F 29.8 °F 29.71 in NW 11.5 mph 6.6 mph 95% 0.00 in 91.00 W/m2
11:24 30.9 °F 29.6 °F 29.71 in West 6.9 mph 3.6 mph 95% 0.00 in 91.00 W/m2
11:29 30.5 °F 29.2 °F 29.71 in WNW 11.5 mph 4.7 mph 95% 0.00 in 139.00 W/m2
11:34 30.2 °F 28.9 °F 29.72 in West 13.8 mph 9.0 mph 95% 0.00 in 90.00 W/m2
11:39 29.7 °F 28.4 °F 29.73 in West 13.8 mph 7.7 mph 95% 0.00 in 107.00 W/m2
11:44 29.6 °F 28.3 °F 29.73 in North 10.4 mph 6.6 mph 95% 0.00 in 95.00 W/m2
11:49 29.3 °F 28.0 °F 29.73 in West 11.5 mph 5.4 mph 95% 0.00 in 83.00 W/m2
11:54 29.3 °F 28.0 °F 29.73 in West 11.5 mph 6.3 mph 95% 0.00 in 88.00 W/m2
11:59 28.8 °F 27.5 °F 29.73 in WNW 9.2 mph 7.1 mph 95% 0.00 in 104.00 W/m2
12:04 28.3 °F 27.1 °F 29.74 in North 15.0 mph 7.3 mph 95% 0.00 in 128.00 W/m2
12:09 28.3 °F 27.1 °F 29.74 in North 10.4 mph 4.9 mph 95% 0.00 in 107.00 W/m2
12:14 27.9 °F 26.7 °F 29.75 in North 12.7 mph 6.6 mph 95% 0.00 in 102.00 W/m2
12:19 27.4 °F 26.2 °F 29.75 in West 18.4 mph 5.9 mph 95% 0.00 in 114.00 W/m2
12:24 27.1 °F 25.6 °F 29.74 in WNW 17.3 mph 7.6 mph 94% 0.00 in 153.00 W/m2
12:29 26.9 °F 25.7 °F 29.75 in North 12.7 mph 8.5 mph 95% 0.00 in 148.00 W/m2
12:34 26.6 °F 25.1 °F 29.75 in WNW 11.5 mph 6.8 mph 94% 0.00 in 160.00 W/m2
12:39 26.5 °F 25.0 °F 29.75 in NW 11.5 mph 9.6 mph 94% 0.00 in 213.00 W/m2
12:44 26.5 °F 25.0 °F 29.75 in NW 9.2 mph 8.5 mph 94% 0.00 in 174.00 W/m2
12:49 26.5 °F 25.0 °F 29.75 in West 9.2 mph 6.6 mph 94% 0.00 in 137.00 W/m2
12:54 26.5 °F 25.0 °F 29.75 in West 11.5 mph 7.0 mph 94% 0.00 in 137.00 W/m2
12:59 26.2 °F 24.5 °F 29.75 in NW 15.0 mph 7.4 mph 93% 0.00 in 116.00 W/m2
13:04 26.2 °F 24.5 °F 29.75 in WNW 13.8 mph 11.9 mph 93% 0.00 in 123.00 W/m2
13:09 26.0 °F 24.3 °F 29.75 in North 11.0 mph 8.9 mph 93% 0.00 in 130.00 W/m2
13:14 25.9 °F 23.9 °F 29.76 in North 11.5 mph 5.8 mph 92% 0.00 in 120.00 W/m2
13:19 25.9 °F 23.9 °F 29.76 in WNW 8.0 mph 4.8 mph 92% 0.00 in 102.00 W/m2
13:24 25.8 °F 23.8 °F 29.76 in WNW 17.3 mph 8.0 mph 92% 0.00 in 137.00 W/m2
13:29 25.6 °F 23.6 °F 29.75 in WNW 15.0 mph 8.0 mph 92% 0.00 in 130.00 W/m2
13:34 25.4 °F 23.4 °F 29.76 in West 13.8 mph 5.6 mph 92% 0.00 in 116.00 W/m2
13:39 25.5 °F 23.5 °F 29.76 in WNW 11.5 mph 9.8 mph 92% 0.00 in 114.00 W/m2
13:44 25.3 °F 23.0 °F 29.76 in West 15.0 mph 9.3 mph 91% 0.00 in 98.00 W/m2
13:49 25.1 °F 22.8 °F 29.76 in NW 9.2 mph 5.8 mph 91% 0.00 in 91.00 W/m2
13:54 25.1 °F 22.8 °F 29.75 in WSW 15.0 mph 7.3 mph 91% 0.00 in 88.00 W/m2
13:59 24.9 °F 22.4 °F 29.75 in North 16.1 mph 9.8 mph 90% 0.00 in 134.00 W/m2
14:04 24.9 °F 22.4 °F 29.77 in WNW 15.0 mph 7.2 mph 90% 0.00 in 91.00 W/m2
14:09 24.9 °F 22.4 °F 29.77 in NW 15.0 mph 9.3 mph 90% 0.00 in 98.00 W/m2
14:14 24.8 °F 22.3 °F 29.77 in NW 11.5 mph 9.5 mph 90% 0.00 in 91.00 W/m2
14:19 24.8 °F 22.3 °F 29.77 in NW 13.8 mph 8.3 mph 90% 0.00 in 69.00 W/m2
14:24 24.8 °F 22.3 °F 29.77 in WNW 10.0 mph 7.7 mph 90% 0.00 in 74.00 W/m2
14:29 24.7 °F 22.2 °F 29.78 in WNW 13.8 mph 8.4 mph 90% 0.00 in 74.00 W/m2
14:34 24.6 °F 22.1 °F 29.79 in North 9.0 mph 6.9 mph 90% 0.00 in 63.00 W/m2
14:39 24.5 °F 22.0 °F 29.78 in NW 11.5 mph 5.2 mph 90% 0.00 in 63.00 W/m2
14:44 24.4 °F 21.9 °F 29.79 in North 12.7 mph 6.3 mph 90% 0.00 in 56.00 W/m2
14:49 24.3 °F 21.8 °F 29.79 in NW 10.4 mph 6.1 mph 90% 0.00 in 58.00 W/m2
14:54 24.3 °F 21.8 °F 29.79 in West 11.5 mph 6.0 mph 90% 0.00 in 56.00 W/m2
14:59 24.0 °F 21.2 °F 29.79 in NNW 16.1 mph 6.8 mph 89% 0.00 in 81.00 W/m2
15:04 23.9 °F 21.1 °F 29.79 in North 13.8 mph 6.0 mph 89% 0.00 in 60.00 W/m2
15:09 23.9 °F 21.1 °F 29.80 in NW 11.5 mph 5.2 mph 89% 0.00 in 56.00 W/m2
15:14 23.9 °F 21.1 °F 29.80 in NW 13.0 mph 6.1 mph 89% 0.00 in 58.00 W/m2
15:19 23.9 °F 21.1 °F 29.81 in NNW 9.2 mph 7.4 mph 89% 0.00 in 67.00 W/m2
15:24 23.8 °F 21.0 °F 29.80 in WNW 12.0 mph 6.3 mph 89% 0.00 in 54.00 W/m2
15:29 23.8 °F 20.8 °F 29.80 in North 16.1 mph 5.9 mph 88% 0.00 in 47.00 W/m2
15:34 23.9 °F 20.9 °F 29.80 in WNW 11.5 mph 4.9 mph 88% 0.00 in 37.00 W/m2
15:39 24.0 °F 21.0 °F 29.81 in NW 11.5 mph 8.3 mph 88% 0.00 in 37.00 W/m2
15:44 23.9 °F 20.9 °F 29.81 in WSW 11.5 mph 7.6 mph 88% 0.00 in 33.00 W/m2
15:49 24.0 °F 21.2 °F 29.81 in NW 10.4 mph 2.9 mph 89% 0.00 in 39.00 W/m2
15:54 24.0 °F 21.0 °F 29.81 in WNW 9.2 mph 4.6 mph 88% 0.00 in 35.00 W/m2
15:59 23.9 °F 20.9 °F 29.81 in North 12.7 mph 7.4 mph 88% 0.00 in 33.00 W/m2
16:04 23.8 °F 20.8 °F 29.80 in WNW 10.4 mph 6.6 mph 88% 0.00 in 28.00 W/m2
16:09 23.8 °F 20.8 °F 29.81 in WNW 9.2 mph 5.2 mph 88% 0.00 in 26.00 W/m2
16:14 23.8 °F 20.8 °F 29.80 in WNW 9.2 mph 4.6 mph 88% 0.00 in 28.00 W/m2
16:19 23.8 °F 20.8 °F 29.80 in WNW 9.2 mph 4.8 mph 88% 0.00 in 21.00 W/m2
16:24 23.8 °F 20.8 °F 29.81 in West 9.2 mph 3.2 mph 88% 0.00 in 21.00 W/m2
16:29 23.8 °F 20.8 °F 29.81 in WSW 11.5 mph 5.3 mph 88% 0.00 in 21.00 W/m2
16:34 23.6 °F 20.6 °F 29.82 in WNW 12.7 mph 5.7 mph 88% 0.00 in 21.00 W/m2
16:39 23.5 °F 20.5 °F 29.82 in WNW 10.4 mph 2.0 mph 88% 0.00 in 14.00 W/m2
16:44 23.6 °F 20.6 °F 29.82 in WNW 1.0 mph 1.3 mph 88% 0.00 in 9.00 W/m2
16:49 23.6 °F 20.6 °F 29.82 in NW 8.1 mph 2.7 mph 88% 0.00 in 7.00 W/m2
16:54 23.5 °F 20.5 °F 29.82 in North 10.0 mph 5.2 mph 88% 0.00 in 5.00 W/m2
16:59 23.5 °F 20.5 °F 29.82 in North 8.1 mph 3.6 mph 88% 0.00 in 5.00 W/m2
17:04 23.4 °F 20.4 °F 29.82 in WNW 9.2 mph 6.1 mph 88% 0.00 in 0.00 W/m2
17:09 23.3 °F 20.3 °F 29.82 in WNW 8.1 mph 6.2 mph 88% 0.00 in 0.00 W/m2
17:14 23.3 °F 20.3 °F 29.83 in West 12.0 mph 6.3 mph 88% 0.00 in 0.00 W/m2
17:19 23.1 °F 20.1 °F 29.83 in NW 8.1 mph 5.4 mph 88% 0.00 in 0.00 W/m2
17:24 23.0 °F 20.0 °F 29.84 in WSW 13.8 mph 7.6 mph 88% 0.00 in 0.00 W/m2
17:29 23.0 °F 20.0 °F 29.85 in North 12.0 mph 4.8 mph 88% 0.00 in 0.00 W/m2
17:34 23.0 °F 20.0 °F 29.85 in North 12.7 mph 4.0 mph 88% 0.00 in 0.00 W/m2
17:39 22.8 °F 19.5 °F 29.85 in WNW 12.7 mph 7.5 mph 87% 0.00 in 0.00 W/m2
17:44 22.6 °F 19.3 °F 29.85 in NW 15.0 mph 7.8 mph 87% 0.00 in 0.00 W/m2
17:49 22.6 °F 19.3 °F 29.85 in North 11.5 mph 8.1 mph 87% 0.00 in 0.00 W/m2
17:54 22.5 °F 19.2 °F 29.84 in NW 15.0 mph 9.4 mph 87% 0.00 in 0.00 W/m2
17:59 22.4 °F 19.1 °F 29.85 in WNW 9.2 mph 3.2 mph 87% 0.00 in 0.00 W/m2
18:04 22.3 °F 19.0 °F 29.86 in West 12.7 mph 7.4 mph 87% 0.00 in 0.00 W/m2
18:09 22.2 °F 18.9 °F 29.86 in North 8.1 mph 6.3 mph 87% 0.00 in 0.00 W/m2
18:14 22.1 °F 18.8 °F 29.86 in NW 10.4 mph 6.2 mph 87% 0.00 in 0.00 W/m2
18:19 22.1 °F 18.8 °F 29.86 in WNW 4.6 mph 5.1 mph 87% 0.00 in 0.00 W/m2
18:24 22.0 °F 18.5 °F 29.87 in NW 10.4 mph 6.3 mph 86% 0.00 in 0.00 W/m2
18:29 21.9 °F 18.4 °F 29.87 in North 8.1 mph 5.8 mph 86% 0.00 in 0.00 W/m2
18:34 21.8 °F 18.3 °F 29.87 in North 9.2 mph 5.5 mph 86% 0.00 in 0.00 W/m2
18:39 21.8 °F 18.3 °F 29.87 in NW 11.5 mph 5.9 mph 86% 0.00 in 0.00 W/m2
18:44 21.7 °F 18.2 °F 29.86 in North 11.5 mph 6.1 mph 86% 0.00 in 0.00 W/m2
18:49 21.5 °F 18.0 °F 29.86 in NW 11.5 mph 7.5 mph 86% 0.00 in 0.00 W/m2
18:54 21.4 °F 17.9 °F 29.86 in NW 12.7 mph 6.6 mph 86% 0.00 in 0.00 W/m2
18:59 21.3 °F 17.8 °F 29.86 in WNW 11.5 mph 7.6 mph 86% 0.00 in 0.00 W/m2
19:04 21.2 °F 17.7 °F 29.87 in WNW 16.1 mph 8.3 mph 86% 0.00 in 0.00 W/m2
19:09 21.1 °F 17.6 °F 29.88 in WNW 11.5 mph 4.2 mph 86% 0.00 in 0.00 W/m2
19:14 21.1 °F 17.6 °F 29.88 in NNW 11.5 mph 5.4 mph 86% 0.00 in 0.00 W/m2
19:19 21.1 °F 17.6 °F 29.87 in NW 10.4 mph 5.9 mph 86% 0.00 in 0.00 W/m2
19:24 21.1 °F 17.6 °F 29.87 in NW 11.5 mph 4.8 mph 86% 0.00 in 0.00 W/m2
19:29 21.0 °F 17.2 °F 29.88 in North 10.4 mph 7.9 mph 85% 0.00 in 0.00 W/m2
19:34 21.1 °F 17.3 °F 29.88 in WNW 16.1 mph 5.5 mph 85% 0.00 in 0.00 W/m2
19:39 21.1 °F 17.3 °F 29.89 in NW 6.9 mph 3.2 mph 85% 0.00 in 0.00 W/m2
19:44 21.2 °F 17.4 °F 29.88 in WSW 10.4 mph 4.0 mph 85% 0.00 in 0.00 W/m2
19:49 21.3 °F 17.5 °F 29.89 in WNW 9.2 mph 5.1 mph 85% 0.00 in 0.00 W/m2
19:54 21.3 °F 17.5 °F 29.91 in WNW 10.4 mph 5.0 mph 85% 0.00 in 0.00 W/m2
19:59 21.4 °F 17.6 °F 29.88 in WNW 11.5 mph 6.2 mph 85% 0.00 in 0.00 W/m2
20:04 21.4 °F 17.6 °F 29.90 in NW 8.1 mph 5.3 mph 85% 0.00 in 0.00 W/m2
20:09 21.5 °F 17.7 °F 29.90 in North 9.2 mph 5.1 mph 85% 0.00 in 0.00 W/m2
20:14 21.5 °F 17.4 °F 29.89 in North 11.5 mph 5.3 mph 84% 0.00 in 0.00 W/m2
20:19 21.5 °F 17.4 °F 29.89 in NW 9.2 mph 5.5 mph 84% 0.00 in 0.00 W/m2
20:24 21.6 °F 17.8 °F 29.89 in WNW 8.1 mph 5.0 mph 85% 0.00 in 0.00 W/m2
20:29 21.6 °F 17.8 °F 29.89 in WNW 17.3 mph 6.7 mph 85% 0.00 in 0.00 W/m2
20:34 21.6 °F 17.8 °F 29.89 in NW 8.1 mph 6.3 mph 85% 0.00 in 0.00 W/m2
20:39 21.6 °F 17.8 °F 29.89 in WNW 10.4 mph 5.9 mph 85% 0.00 in 0.00 W/m2
20:44 21.6 °F 17.8 °F 29.89 in North 11.5 mph 5.0 mph 85% 0.00 in 0.00 W/m2
20:49 21.5 °F 17.7 °F 29.89 in WNW 8.1 mph 4.7 mph 85% 0.00 in 0.00 W/m2
20:54 21.5 °F 17.7 °F 29.88 in NW 5.8 mph 3.6 mph 85% 0.00 in 0.00 W/m2
20:59 21.5 °F 17.7 °F 29.88 in WSW 6.9 mph 5.2 mph 85% 0.00 in 0.00 W/m2
21:04 21.5 °F 17.7 °F 29.88 in WNW 6.9 mph 3.8 mph 85% 0.00 in 0.00 W/m2
21:09 21.5 °F 18.0 °F 29.89 in West 10.4 mph 4.6 mph 86% 0.00 in 0.00 W/m2
21:14 21.5 °F 18.0 °F 29.88 in West 7.0 mph 6.0 mph 86% 0.00 in 0.00 W/m2
21:19 21.5 °F 17.7 °F 29.88 in North 11.5 mph 4.3 mph 85% 0.00 in 0.00 W/m2
21:24 21.5 °F 17.7 °F 29.88 in WNW 6.9 mph 4.4 mph 85% 0.00 in 0.00 W/m2
21:29 21.5 °F 17.7 °F 29.89 in West 9.2 mph 7.1 mph 85% 0.00 in 0.00 W/m2
21:34 21.5 °F 17.7 °F 29.88 in WNW 9.2 mph 4.8 mph 85% 0.00 in 0.00 W/m2
21:39 21.4 °F 17.6 °F 29.88 in West 9.2 mph 4.8 mph 85% 0.00 in 0.00 W/m2
21:44 21.5 °F 17.7 °F 29.88 in North 9.2 mph 4.0 mph 85% 0.00 in 0.00 W/m2
21:49 21.4 °F 17.6 °F 29.88 in North 10.4 mph 5.9 mph 85% 0.00 in 0.00 W/m2
21:54 21.3 °F 17.5 °F 29.88 in NNW 11.5 mph 2.4 mph 85% 0.00 in 0.00 W/m2
21:59 21.3 °F 17.2 °F 29.88 in WNW 12.7 mph 5.8 mph 84% 0.00 in 0.00 W/m2
22:04 21.3 °F 17.2 °F 29.88 in North 10.4 mph 4.4 mph 84% 0.00 in 0.00 W/m2
22:09 21.2 °F 17.1 °F 29.88 in NW 7.0 mph 4.7 mph 84% 0.00 in 0.00 W/m2
22:14 21.2 °F 17.1 °F 29.88 in NW 9.0 mph 4.1 mph 84% 0.00 in 0.00 W/m2
22:19 21.1 °F 17.0 °F 29.88 in WNW 10.0 mph 6.7 mph 84% 0.00 in 0.00 W/m2
22:24 21.1 °F 17.0 °F 29.88 in North 11.5 mph 6.3 mph 84% 0.00 in 0.00 W/m2
22:29 21.1 °F 17.0 °F 29.88 in North 10.4 mph 4.6 mph 84% 0.00 in 0.00 W/m2
22:34 21.0 °F 16.9 °F 29.89 in NNW 8.1 mph 6.1 mph 84% 0.00 in 0.00 W/m2
22:39 20.9 °F 16.8 °F 29.89 in WNW 12.7 mph 7.1 mph 84% 0.00 in 0.00 W/m2
22:44 20.8 °F 16.7 °F 29.90 in WNW 11.5 mph 6.0 mph 84% 0.00 in 0.00 W/m2
22:49 20.7 °F 16.6 °F 29.90 in NW 10.0 mph 8.4 mph 84% 0.00 in 0.00 W/m2
22:54 20.6 °F 16.5 °F 29.90 in West 6.9 mph 3.4 mph 84% 0.00 in 0.00 W/m2
22:59 20.5 °F 16.2 °F 29.90 in WNW 6.9 mph 4.1 mph 83% 0.00 in 0.00 W/m2
23:04 20.4 °F 16.1 °F 29.90 in NW 9.2 mph 5.6 mph 83% 0.00 in 0.00 W/m2
23:09 20.3 °F 16.0 °F 29.90 in WNW 11.5 mph 6.0 mph 83% 0.00 in 0.00 W/m2
23:14 20.3 °F 16.0 °F 29.90 in NW 8.1 mph 4.7 mph 83% 0.00 in 0.00 W/m2
23:19 20.4 °F 16.1 °F 29.90 in WNW 10.4 mph 4.1 mph 83% 0.00 in 0.00 W/m2
23:24 20.4 °F 16.1 °F 29.90 in NW 4.0 mph 3.4 mph 83% 0.00 in 0.00 W/m2
23:29 20.3 °F 15.7 °F 29.90 in NW 10.4 mph 5.4 mph 82% 0.00 in 0.00 W/m2
23:34 20.3 °F 15.7 °F 29.90 in North 8.1 mph 4.4 mph 82% 0.00 in 0.00 W/m2
23:39 20.3 °F 16.0 °F 29.90 in NNW 9.2 mph 5.8 mph 83% 0.00 in 0.00 W/m2
23:44 20.3 °F 16.0 °F 29.90 in North 8.1 mph 3.8 mph 83% 0.00 in 0.00 W/m2
23:49 20.2 °F 15.9 °F 29.90 in WSW 10.4 mph 8.3 mph 83% 0.00 in 0.00 W/m2
23:54 20.2 °F 15.6 °F 29.90 in WNW 10.4 mph 5.8 mph 82% 0.00 in 0.00 W/m2
23:59 20.1 °F 15.5 °F 29.90 in WNW 11.5 mph 4.4 mph 82% 0.00 in 0.00 W/m2
Bourbonnais, Illinois, USA
Compliments of Weather Underground - 4 mb